sensor_id;sensor_type;location;lat;lon;timestamp;temperature;humidity
39983;DHT22;25670;44.782;10.356;2024-01-30T00:00:04;-2.10;99.90
39983;DHT22;25670;44.782;10.356;2024-01-30T00:02:32;-1.90;99.90
39983;DHT22;25670;44.782;10.356;2024-01-30T00:04:58;-1.90;99.90
39983;DHT22;25670;44.782;10.356;2024-01-30T00:07:25;-2.00;99.90
39983;DHT22;25670;44.782;10.356;2024-01-30T00:09:51;-1.90;99.90
39983;DHT22;25670;44.782;10.356;2024-01-30T00:12:17;-2.10;99.90
39983;DHT22;25670;44.782;10.356;2024-01-30T00:14:43;-2.00;99.90
39983;DHT22;25670;44.782;10.356;2024-01-30T00:17:10;-2.00;99.90
39983;DHT22;25670;44.782;10.356;2024-01-30T00:19:36;-1.90;99.90
39983;DHT22;25670;44.782;10.356;2024-01-30T00:22:02;-2.10;99.90
39983;DHT22;25670;44.782;10.356;2024-01-30T00:24:29;-2.60;99.90
39983;DHT22;25670;44.782;10.356;2024-01-30T00:26:55;-2.30;99.90
39983;DHT22;25670;44.782;10.356;2024-01-30T00:29:22;-2.20;99.90
39983;DHT22;25670;44.782;10.356;2024-01-30T00:31:48;-2.10;99.90
39983;DHT22;25670;44.782;10.356;2024-01-30T00:34:15;-2.40;99.90
39983;DHT22;25670;44.782;10.356;2024-01-30T00:36:41;-2.50;99.90
39983;DHT22;25670;44.782;10.356;2024-01-30T00:39:07;-2.60;99.90
39983;DHT22;25670;44.782;10.356;2024-01-30T00:41:35;-2.60;99.90
39983;DHT22;25670;44.782;10.356;2024-01-30T00:44:02;-2.50;99.90
39983;DHT22;25670;44.782;10.356;2024-01-30T00:46:28;-2.50;99.90
39983;DHT22;25670;44.782;10.356;2024-01-30T00:48:54;-2.60;99.90
39983;DHT22;25670;44.782;10.356;2024-01-30T00:51:21;-2.50;99.90
39983;DHT22;25670;44.782;10.356;2024-01-30T00:53:47;-2.80;99.90
39983;DHT22;25670;44.782;10.356;2024-01-30T00:56:13;-2.70;99.90
39983;DHT22;25670;44.782;10.356;2024-01-30T00:58:40;-2.90;99.90
39983;DHT22;25670;44.782;10.356;2024-01-30T01:01:06;-2.90;99.90
39983;DHT22;25670;44.782;10.356;2024-01-30T01:08:26;-2.80;99.90
39983;DHT22;25670;44.782;10.356;2024-01-30T01:10:53;-3.10;99.90
39983;DHT22;25670;44.782;10.356;2024-01-30T01:13:19;-3.10;99.90
39983;DHT22;25670;44.782;10.356;2024-01-30T01:15:46;-2.90;99.90
39983;DHT22;25670;44.782;10.356;2024-01-30T01:18:12;-3.10;99.90
39983;DHT22;25670;44.782;10.356;2024-01-30T01:20:38;-2.90;99.90
39983;DHT22;25670;44.782;10.356;2024-01-30T01:23:04;-2.70;99.90
39983;DHT22;25670;44.782;10.356;2024-01-30T01:25:31;-3.00;99.90
39983;DHT22;25670;44.782;10.356;2024-01-30T01:27:57;-3.40;99.90
39983;DHT22;25670;44.782;10.356;2024-01-30T01:30:23;-2.90;99.90
39983;DHT22;25670;44.782;10.356;2024-01-30T01:32:51;-3.10;99.90
39983;DHT22;25670;44.782;10.356;2024-01-30T01:35:27;-3.10;99.90
39983;DHT22;25670;44.782;10.356;2024-01-30T01:37:54;-3.10;99.90
39983;DHT22;25670;44.782;10.356;2024-01-30T01:40:22;-3.00;99.90
39983;DHT22;25670;44.782;10.356;2024-01-30T01:42:50;-2.90;99.90
39983;DHT22;25670;44.782;10.356;2024-01-30T01:45:17;-3.10;99.90
39983;DHT22;25670;44.782;10.356;2024-01-30T01:47:44;-3.20;99.90
39983;DHT22;25670;44.782;10.356;2024-01-30T01:50:13;-3.10;99.90
39983;DHT22;25670;44.782;10.356;2024-01-30T01:52:40;-3.70;99.90
39983;DHT22;25670;44.782;10.356;2024-01-30T01:57:38;-3.50;99.90
39983;DHT22;25670;44.782;10.356;2024-01-30T02:00:04;-3.80;99.90
39983;DHT22;25670;44.782;10.356;2024-01-30T02:02:36;-3.60;99.90
39983;DHT22;25670;44.782;10.356;2024-01-30T02:05:02;-3.50;99.90
39983;DHT22;25670;44.782;10.356;2024-01-30T02:07:29;-3.40;99.90
39983;DHT22;25670;44.782;10.356;2024-01-30T02:09:55;-3.50;99.90
39983;DHT22;25670;44.782;10.356;2024-01-30T02:12:22;-3.40;99.90
39983;DHT22;25670;44.782;10.356;2024-01-30T02:14:48;-3.60;99.90
39983;DHT22;25670;44.782;10.356;2024-01-30T02:17:17;-3.50;99.90
39983;DHT22;25670;44.782;10.356;2024-01-30T02:19:44;-3.60;99.90
39983;DHT22;25670;44.782;10.356;2024-01-30T02:22:10;-3.50;99.90
39983;DHT22;25670;44.782;10.356;2024-01-30T02:24:37;-3.60;99.90
39983;DHT22;25670;44.782;10.356;2024-01-30T02:27:03;-3.40;99.90
39983;DHT22;25670;44.782;10.356;2024-01-30T02:29:29;-3.10;99.90
39983;DHT22;25670;44.782;10.356;2024-01-30T02:31:56;-3.20;99.90
39983;DHT22;25670;44.782;10.356;2024-01-30T02:34:22;-3.40;99.90
39983;DHT22;25670;44.782;10.356;2024-01-30T02:36:48;-3.30;99.90
39983;DHT22;25670;44.782;10.356;2024-01-30T02:39:14;-3.50;99.90
39983;DHT22;25670;44.782;10.356;2024-01-30T02:41:41;-3.10;99.90
39983;DHT22;25670;44.782;10.356;2024-01-30T02:44:07;-3.70;99.90
39983;DHT22;25670;44.782;10.356;2024-01-30T02:46:33;-3.40;99.90
39983;DHT22;25670;44.782;10.356;2024-01-30T02:48:59;-3.40;99.90
39983;DHT22;25670;44.782;10.356;2024-01-30T02:51:26;-3.50;99.90
39983;DHT22;25670;44.782;10.356;2024-01-30T02:53:52;-3.70;99.90
39983;DHT22;25670;44.782;10.356;2024-01-30T02:56:18;-3.50;99.90
39983;DHT22;25670;44.782;10.356;2024-01-30T03:03:37;-3.10;99.90
39983;DHT22;25670;44.782;10.356;2024-01-30T03:06:04;-3.70;99.90
39983;DHT22;25670;44.782;10.356;2024-01-30T03:08:31;-3.20;99.90
39983;DHT22;25670;44.782;10.356;2024-01-30T03:10:57;-3.70;99.90
39983;DHT22;25670;44.782;10.356;2024-01-30T03:13:24;-3.60;99.90
39983;DHT22;25670;44.782;10.356;2024-01-30T03:15:51;-3.50;99.90
39983;DHT22;25670;44.782;10.356;2024-01-30T03:18:17;-3.60;99.90
39983;DHT22;25670;44.782;10.356;2024-01-30T03:20:44;-3.50;99.90
39983;DHT22;25670;44.782;10.356;2024-01-30T03:23:10;-3.40;99.90
39983;DHT22;25670;44.782;10.356;2024-01-30T03:25:36;-3.90;99.90
39983;DHT22;25670;44.782;10.356;2024-01-30T03:28:03;-4.00;99.90
39983;DHT22;25670;44.782;10.356;2024-01-30T03:32:56;-3.80;99.90
39983;DHT22;25670;44.782;10.356;2024-01-30T03:35:22;-3.80;99.90
39983;DHT22;25670;44.782;10.356;2024-01-30T03:37:48;-3.90;99.90
39983;DHT22;25670;44.782;10.356;2024-01-30T03:40:15;-3.60;99.90
39983;DHT22;25670;44.782;10.356;2024-01-30T03:42:41;-3.60;99.90
39983;DHT22;25670;44.782;10.356;2024-01-30T03:45:08;-3.60;99.90
39983;DHT22;25670;44.782;10.356;2024-01-30T03:47:34;-3.60;99.90
39983;DHT22;25670;44.782;10.356;2024-01-30T03:50:00;-3.60;99.90
39983;DHT22;25670;44.782;10.356;2024-01-30T03:52:26;-3.70;99.90
39983;DHT22;25670;44.782;10.356;2024-01-30T03:54:53;-3.60;99.90
39983;DHT22;25670;44.782;10.356;2024-01-30T03:57:19;-3.90;99.90
39983;DHT22;25670;44.782;10.356;2024-01-30T03:59:45;-3.60;99.90
39983;DHT22;25670;44.782;10.356;2024-01-30T04:02:11;-3.40;99.90
39983;DHT22;25670;44.782;10.356;2024-01-30T04:04:38;-3.60;99.90
39983;DHT22;25670;44.782;10.356;2024-01-30T04:07:04;-3.70;99.90
39983;DHT22;25670;44.782;10.356;2024-01-30T04:09:30;-3.90;99.90
39983;DHT22;25670;44.782;10.356;2024-01-30T04:11:57;-3.70;99.90
39983;DHT22;25670;44.782;10.356;2024-01-30T04:14:23;-3.70;99.90
39983;DHT22;25670;44.782;10.356;2024-01-30T04:16:50;-3.70;99.90
39983;DHT22;25670;44.782;10.356;2024-01-30T04:19:16;-3.90;99.90
39983;DHT22;25670;44.782;10.356;2024-01-30T04:21:42;-3.70;99.90
39983;DHT22;25670;44.782;10.356;2024-01-30T04:24:08;-3.40;99.90
39983;DHT22;25670;44.782;10.356;2024-01-30T04:26:34;-3.50;99.90
39983;DHT22;25670;44.782;10.356;2024-01-30T04:29:00;-3.50;99.90
39983;DHT22;25670;44.782;10.356;2024-01-30T04:31:27;-3.40;99.90
39983;DHT22;25670;44.782;10.356;2024-01-30T04:33:53;-3.60;99.90
39983;DHT22;25670;44.782;10.356;2024-01-30T04:36:19;-3.30;99.90
39983;DHT22;25670;44.782;10.356;2024-01-30T04:38:46;-3.30;99.90
39983;DHT22;25670;44.782;10.356;2024-01-30T04:41:12;-3.20;99.90
39983;DHT22;25670;44.782;10.356;2024-01-30T04:43:38;-3.20;99.90
39983;DHT22;25670;44.782;10.356;2024-01-30T04:46:05;-3.30;99.90
39983;DHT22;25670;44.782;10.356;2024-01-30T04:48:31;-3.10;99.90
39983;DHT22;25670;44.782;10.356;2024-01-30T04:50:58;-3.20;99.90
39983;DHT22;25670;44.782;10.356;2024-01-30T04:53:24;-3.00;99.90
39983;DHT22;25670;44.782;10.356;2024-01-30T04:55:50;-2.60;99.90
39983;DHT22;25670;44.782;10.356;2024-01-30T04:58:17;-3.10;99.90
39983;DHT22;25670;44.782;10.356;2024-01-30T05:00:43;-3.10;99.90
39983;DHT22;25670;44.782;10.356;2024-01-30T05:03:09;-3.10;99.90
39983;DHT22;25670;44.782;10.356;2024-01-30T05:05:36;-3.70;99.90
39983;DHT22;25670;44.782;10.356;2024-01-30T05:08:02;-3.00;99.90
39983;DHT22;25670;44.782;10.356;2024-01-30T05:10:28;-3.50;99.90
39983;DHT22;25670;44.782;10.356;2024-01-30T05:12:55;-3.30;99.90
39983;DHT22;25670;44.782;10.356;2024-01-30T05:15:22;-3.40;99.90
39983;DHT22;25670;44.782;10.356;2024-01-30T05:17:48;-3.50;99.90
39983;DHT22;25670;44.782;10.356;2024-01-30T05:20:14;-3.10;99.90
39983;DHT22;25670;44.782;10.356;2024-01-30T05:22:41;-3.10;99.90
39983;DHT22;25670;44.782;10.356;2024-01-30T05:25:14;-3.10;99.90
39983;DHT22;25670;44.782;10.356;2024-01-30T05:27:41;-3.20;99.90
39983;DHT22;25670;44.782;10.356;2024-01-30T05:30:07;-3.30;99.90
39983;DHT22;25670;44.782;10.356;2024-01-30T05:32:34;-3.60;99.90
39983;DHT22;25670;44.782;10.356;2024-01-30T05:35:00;-3.30;99.90
39983;DHT22;25670;44.782;10.356;2024-01-30T05:37:26;-3.30;99.90
39983;DHT22;25670;44.782;10.356;2024-01-30T05:39:53;-3.50;99.90
39983;DHT22;25670;44.782;10.356;2024-01-30T05:42:19;-3.40;99.90
39983;DHT22;25670;44.782;10.356;2024-01-30T05:44:46;-3.30;99.90
39983;DHT22;25670;44.782;10.356;2024-01-30T05:47:12;-3.60;99.90
39983;DHT22;25670;44.782;10.356;2024-01-30T05:49:38;-3.20;99.90
39983;DHT22;25670;44.782;10.356;2024-01-30T05:52:05;-3.20;99.90
39983;DHT22;25670;44.782;10.356;2024-01-30T05:54:32;-3.30;99.90
39983;DHT22;25670;44.782;10.356;2024-01-30T05:56:58;-3.20;99.90
39983;DHT22;25670;44.782;10.356;2024-01-30T05:59:24;-3.00;99.90
39983;DHT22;25670;44.782;10.356;2024-01-30T06:01:51;-3.20;99.90
39983;DHT22;25670;44.782;10.356;2024-01-30T06:04:17;-3.10;99.90
39983;DHT22;25670;44.782;10.356;2024-01-30T06:06:43;-3.20;99.90
39983;DHT22;25670;44.782;10.356;2024-01-30T06:09:10;-3.80;99.90
39983;DHT22;25670;44.782;10.356;2024-01-30T06:11:36;-3.30;99.90
39983;DHT22;25670;44.782;10.356;2024-01-30T06:14:02;-3.10;99.90
39983;DHT22;25670;44.782;10.356;2024-01-30T06:16:29;-3.40;99.90
39983;DHT22;25670;44.782;10.356;2024-01-30T06:18:56;-3.30;99.90
39983;DHT22;25670;44.782;10.356;2024-01-30T06:21:23;-2.90;99.90
39983;DHT22;25670;44.782;10.356;2024-01-30T06:23:50;-2.80;99.90
39983;DHT22;25670;44.782;10.356;2024-01-30T06:26:16;-3.30;99.90
39983;DHT22;25670;44.782;10.356;2024-01-30T06:28:42;-3.20;99.90
39983;DHT22;25670;44.782;10.356;2024-01-30T06:31:10;-3.10;99.90
39983;DHT22;25670;44.782;10.356;2024-01-30T06:33:36;-2.90;99.90
39983;DHT22;25670;44.782;10.356;2024-01-30T06:36:03;-3.00;99.90
39983;DHT22;25670;44.782;10.356;2024-01-30T06:38:29;-2.60;99.90
39983;DHT22;25670;44.782;10.356;2024-01-30T06:40:56;-2.70;99.90
39983;DHT22;25670;44.782;10.356;2024-01-30T06:43:22;-1.80;99.90
39983;DHT22;25670;44.782;10.356;2024-01-30T06:45:48;-2.80;99.90
39983;DHT22;25670;44.782;10.356;2024-01-30T06:48:15;-2.70;99.90
39983;DHT22;25670;44.782;10.356;2024-01-30T06:50:41;-2.90;99.90
39983;DHT22;25670;44.782;10.356;2024-01-30T06:53:07;-2.80;99.90
39983;DHT22;25670;44.782;10.356;2024-01-30T06:55:33;-2.90;99.90
39983;DHT22;25670;44.782;10.356;2024-01-30T07:00:26;-2.70;99.90
39983;DHT22;25670;44.782;10.356;2024-01-30T07:02:53;-2.80;99.90
39983;DHT22;25670;44.782;10.356;2024-01-30T07:05:19;-2.70;99.90
39983;DHT22;25670;44.782;10.356;2024-01-30T07:07:45;-2.60;99.90
39983;DHT22;25670;44.782;10.356;2024-01-30T07:10:12;-2.40;99.90
39983;DHT22;25670;44.782;10.356;2024-01-30T07:12:38;-2.50;99.90
39983;DHT22;25670;44.782;10.356;2024-01-30T07:15:05;-2.50;99.90
39983;DHT22;25670;44.782;10.356;2024-01-30T07:17:35;-2.60;99.90
39983;DHT22;25670;44.782;10.356;2024-01-30T07:20:01;-2.60;99.90
39983;DHT22;25670;44.782;10.356;2024-01-30T07:22:31;-2.60;99.90
39983;DHT22;25670;44.782;10.356;2024-01-30T07:24:57;-2.50;99.90
39983;DHT22;25670;44.782;10.356;2024-01-30T07:27:23;-2.70;99.90
39983;DHT22;25670;44.782;10.356;2024-01-30T07:29:50;-2.00;99.90
39983;DHT22;25670;44.782;10.356;2024-01-30T07:32:16;-2.70;99.90
39983;DHT22;25670;44.782;10.356;2024-01-30T07:34:43;-2.90;99.90
39983;DHT22;25670;44.782;10.356;2024-01-30T07:37:09;-3.00;99.90
39983;DHT22;25670;44.782;10.356;2024-01-30T07:39:36;-2.80;99.90
39983;DHT22;25670;44.782;10.356;2024-01-30T07:42:03;-2.60;99.90
39983;DHT22;25670;44.782;10.356;2024-01-30T07:44:29;-2.50;99.90
39983;DHT22;25670;44.782;10.356;2024-01-30T07:46:56;-2.30;99.90
39983;DHT22;25670;44.782;10.356;2024-01-30T07:49:23;-2.30;99.90
39983;DHT22;25670;44.782;10.356;2024-01-30T07:51:49;-2.40;99.90
39983;DHT22;25670;44.782;10.356;2024-01-30T07:54:16;-2.40;99.90
39983;DHT22;25670;44.782;10.356;2024-01-30T07:56:42;-2.90;99.90
39983;DHT22;25670;44.782;10.356;2024-01-30T07:59:12;-2.50;99.90
39983;DHT22;25670;44.782;10.356;2024-01-30T08:01:38;-1.90;99.90
39983;DHT22;25670;44.782;10.356;2024-01-30T08:04:05;-1.60;99.90
39983;DHT22;25670;44.782;10.356;2024-01-30T08:06:31;-1.00;99.90
39983;DHT22;25670;44.782;10.356;2024-01-30T08:08:58;-1.50;99.90
39983;DHT22;25670;44.782;10.356;2024-01-30T08:11:25;-1.40;99.90
39983;DHT22;25670;44.782;10.356;2024-01-30T08:13:53;-1.50;99.90
39983;DHT22;25670;44.782;10.356;2024-01-30T08:16:19;-1.30;99.90
39983;DHT22;25670;44.782;10.356;2024-01-30T08:18:45;-1.40;99.90
39983;DHT22;25670;44.782;10.356;2024-01-30T08:23:39;-0.90;99.90
39983;DHT22;25670;44.782;10.356;2024-01-30T08:26:05;-1.00;99.90
39983;DHT22;25670;44.782;10.356;2024-01-30T08:28:32;-0.90;99.90
39983;DHT22;25670;44.782;10.356;2024-01-30T08:30:58;-0.80;99.90
39983;DHT22;25670;44.782;10.356;2024-01-30T08:33:25;-0.50;99.90
39983;DHT22;25670;44.782;10.356;2024-01-30T08:35:51;-0.80;99.90
39983;DHT22;25670;44.782;10.356;2024-01-30T08:38:17;-0.50;99.90
39983;DHT22;25670;44.782;10.356;2024-01-30T08:40:44;-0.30;99.90
39983;DHT22;25670;44.782;10.356;2024-01-30T08:43:11;0.10;99.90
39983;DHT22;25670;44.782;10.356;2024-01-30T08:45:37;0.30;99.90
39983;DHT22;25670;44.782;10.356;2024-01-30T08:48:04;0.10;99.90
39983;DHT22;25670;44.782;10.356;2024-01-30T08:50:30;0.20;99.90
39983;DHT22;25670;44.782;10.356;2024-01-30T08:52:57;0.30;99.90
39983;DHT22;25670;44.782;10.356;2024-01-30T08:55:23;0.50;99.90
39983;DHT22;25670;44.782;10.356;2024-01-30T08:57:49;0.80;99.90
39983;DHT22;25670;44.782;10.356;2024-01-30T09:00:16;0.80;99.90
39983;DHT22;25670;44.782;10.356;2024-01-30T09:02:43;1.00;99.90
39983;DHT22;25670;44.782;10.356;2024-01-30T09:05:09;0.80;99.90
39983;DHT22;25670;44.782;10.356;2024-01-30T09:07:35;1.00;99.90
39983;DHT22;25670;44.782;10.356;2024-01-30T09:10:02;1.00;99.90
39983;DHT22;25670;44.782;10.356;2024-01-30T09:12:29;1.10;99.90
39983;DHT22;25670;44.782;10.356;2024-01-30T09:14:55;1.10;99.90
39983;DHT22;25670;44.782;10.356;2024-01-30T09:17:21;1.40;99.90
39983;DHT22;25670;44.782;10.356;2024-01-30T09:19:48;1.60;99.90
39983;DHT22;25670;44.782;10.356;2024-01-30T09:22:14;1.60;99.90
39983;DHT22;25670;44.782;10.356;2024-01-30T09:24:41;1.80;99.90
39983;DHT22;25670;44.782;10.356;2024-01-30T09:27:07;1.70;99.90
39983;DHT22;25670;44.782;10.356;2024-01-30T09:29:34;1.80;99.90
39983;DHT22;25670;44.782;10.356;2024-01-30T09:32:02;1.80;99.90
39983;DHT22;25670;44.782;10.356;2024-01-30T09:34:29;1.90;99.90
39983;DHT22;25670;44.782;10.356;2024-01-30T09:36:56;2.00;99.90
39983;DHT22;25670;44.782;10.356;2024-01-30T09:39:22;2.10;99.90
39983;DHT22;25670;44.782;10.356;2024-01-30T09:41:49;2.20;99.90
39983;DHT22;25670;44.782;10.356;2024-01-30T09:44:20;2.20;99.90
39983;DHT22;25670;44.782;10.356;2024-01-30T09:46:47;2.30;99.90
39983;DHT22;25670;44.782;10.356;2024-01-30T09:49:14;2.20;99.90
39983;DHT22;25670;44.782;10.356;2024-01-30T09:51:42;2.50;99.90
39983;DHT22;25670;44.782;10.356;2024-01-30T09:54:08;2.70;99.90
39983;DHT22;25670;44.782;10.356;2024-01-30T09:56:35;2.70;99.90
39983;DHT22;25670;44.782;10.356;2024-01-30T09:59:02;2.70;99.90
39983;DHT22;25670;44.782;10.356;2024-01-30T10:01:28;2.80;99.90
39983;DHT22;25670;44.782;10.356;2024-01-30T10:03:55;3.10;99.90
39983;DHT22;25670;44.782;10.356;2024-01-30T10:06:22;3.10;99.90
39983;DHT22;25670;44.782;10.356;2024-01-30T10:08:50;3.20;99.90
39983;DHT22;25670;44.782;10.356;2024-01-30T10:11:17;3.30;99.90
39983;DHT22;25670;44.782;10.356;2024-01-30T10:13:43;3.60;72.20
39983;DHT22;25670;44.782;10.356;2024-01-30T10:16:09;3.60;48.00
39983;DHT22;25670;44.782;10.356;2024-01-30T10:18:36;3.70;57.60
39983;DHT22;25670;44.782;10.356;2024-01-30T10:21:02;3.70;51.30
39983;DHT22;25670;44.782;10.356;2024-01-30T10:23:29;3.70;59.50
39983;DHT22;25670;44.782;10.356;2024-01-30T10:25:55;3.70;43.70
39983;DHT22;25670;44.782;10.356;2024-01-30T10:28:22;3.90;44.90
39983;DHT22;25670;44.782;10.356;2024-01-30T10:30:57;4.00;34.80
39983;DHT22;25670;44.782;10.356;2024-01-30T10:33:26;4.20;23.00
39983;DHT22;25670;44.782;10.356;2024-01-30T10:36:03;5.00;25.30
39983;DHT22;25670;44.782;10.356;2024-01-30T10:38:31;4.30;18.10
39983;DHT22;25670;44.782;10.356;2024-01-30T10:41:01;4.30;28.20
39983;DHT22;25670;44.782;10.356;2024-01-30T10:43:35;4.40;16.10
39983;DHT22;25670;44.782;10.356;2024-01-30T10:46:15;4.50;21.00
39983;DHT22;25670;44.782;10.356;2024-01-30T10:48:50;4.50;4.90
39983;DHT22;25670;44.782;10.356;2024-01-30T10:51:18;4.40;6.60
39983;DHT22;25670;44.782;10.356;2024-01-30T10:53:46;4.40;21.70
39983;DHT22;25670;44.782;10.356;2024-01-30T10:56:16;4.40;14.70
39983;DHT22;25670;44.782;10.356;2024-01-30T10:58:42;4.50;16.20
39983;DHT22;25670;44.782;10.356;2024-01-30T11:01:09;4.10;16.00
39983;DHT22;25670;44.782;10.356;2024-01-30T11:03:36;4.50;6.90
39983;DHT22;25670;44.782;10.356;2024-01-30T11:06:03;4.50;38.70
39983;DHT22;25670;44.782;10.356;2024-01-30T11:08:32;4.50;27.20
39983;DHT22;25670;44.782;10.356;2024-01-30T11:10:59;4.50;28.40
39983;DHT22;25670;44.782;10.356;2024-01-30T11:13:31;4.70;40.90
39983;DHT22;25670;44.782;10.356;2024-01-30T11:16:05;4.50;62.70
39983;DHT22;25670;44.782;10.356;2024-01-30T11:18:32;4.50;49.00
39983;DHT22;25670;44.782;10.356;2024-01-30T11:21:00;4.60;44.20
39983;DHT22;25670;44.782;10.356;2024-01-30T11:23:29;4.60;42.90
39983;DHT22;25670;44.782;10.356;2024-01-30T11:25:56;4.60;66.00
39983;DHT22;25670;44.782;10.356;2024-01-30T11:28:23;4.60;54.50
39983;DHT22;25670;44.782;10.356;2024-01-30T11:30:50;4.70;75.40
39983;DHT22;25670;44.782;10.356;2024-01-30T11:33:28;4.60;66.40
39983;DHT22;25670;44.782;10.356;2024-01-30T11:35:58;4.70;64.30
39983;DHT22;25670;44.782;10.356;2024-01-30T11:38:28;5.10;68.50
39983;DHT22;25670;44.782;10.356;2024-01-30T11:40:55;4.90;56.40
39983;DHT22;25670;44.782;10.356;2024-01-30T11:43:24;5.00;57.10
39983;DHT22;25670;44.782;10.356;2024-01-30T11:45:51;5.30;55.10
39983;DHT22;25670;44.782;10.356;2024-01-30T11:48:18;5.30;60.00
39983;DHT22;25670;44.782;10.356;2024-01-30T11:50:44;5.20;48.00
39983;DHT22;25670;44.782;10.356;2024-01-30T11:53:10;5.50;62.50
39983;DHT22;25670;44.782;10.356;2024-01-30T11:55:37;5.30;54.30
39983;DHT22;25670;44.782;10.356;2024-01-30T11:58:04;5.40;63.60
39983;DHT22;25670;44.782;10.356;2024-01-30T12:00:30;5.60;76.80
39983;DHT22;25670;44.782;10.356;2024-01-30T12:02:57;5.50;64.70
39983;DHT22;25670;44.782;10.356;2024-01-30T12:05:25;5.70;72.00
39983;DHT22;25670;44.782;10.356;2024-01-30T12:07:51;6.10;45.30
39983;DHT22;25670;44.782;10.356;2024-01-30T12:10:18;6.00;28.50
39983;DHT22;25670;44.782;10.356;2024-01-30T12:12:47;6.00;50.60
39983;DHT22;25670;44.782;10.356;2024-01-30T12:15:14;6.00;43.70
39983;DHT22;25670;44.782;10.356;2024-01-30T12:17:41;6.20;40.10
39983;DHT22;25670;44.782;10.356;2024-01-30T12:22:43;6.50;23.60
39983;DHT22;25670;44.782;10.356;2024-01-30T12:25:10;6.40;18.70
39983;DHT22;25670;44.782;10.356;2024-01-30T12:27:42;6.90;14.00
39983;DHT22;25670;44.782;10.356;2024-01-30T12:30:10;6.60;1.00
39983;DHT22;25670;44.782;10.356;2024-01-30T12:32:41;6.80;1.00
39983;DHT22;25670;44.782;10.356;2024-01-30T12:35:11;6.90;1.00
39983;DHT22;25670;44.782;10.356;2024-01-30T12:37:38;7.10;9.30
39983;DHT22;25670;44.782;10.356;2024-01-30T12:40:06;7.50;1.00
39983;DHT22;25670;44.782;10.356;2024-01-30T12:42:33;8.00;1.00
39983;DHT22;25670;44.782;10.356;2024-01-30T12:44:59;8.70;99.90
39983;DHT22;25670;44.782;10.356;2024-01-30T12:47:26;9.30;99.90
39983;DHT22;25670;44.782;10.356;2024-01-30T12:49:52;9.80;99.90
39983;DHT22;25670;44.782;10.356;2024-01-30T12:52:20;10.30;99.90
39983;DHT22;25670;44.782;10.356;2024-01-30T12:54:48;10.80;1.00
39983;DHT22;25670;44.782;10.356;2024-01-30T12:57:15;11.50;62.90
39983;DHT22;25670;44.782;10.356;2024-01-30T12:59:43;11.60;1.00
39983;DHT22;25670;44.782;10.356;2024-01-30T13:02:09;12.00;99.90
39983;DHT22;25670;44.782;10.356;2024-01-30T13:04:36;12.40;99.90
39983;DHT22;25670;44.782;10.356;2024-01-30T13:07:03;12.40;99.90
39983;DHT22;25670;44.782;10.356;2024-01-30T13:09:32;12.30;1.00
39983;DHT22;25670;44.782;10.356;2024-01-30T13:11:59;12.30;73.50
39983;DHT22;25670;44.782;10.356;2024-01-30T13:14:26;12.90;1.00
39983;DHT22;25670;44.782;10.356;2024-01-30T13:16:52;13.30;1.00
39983;DHT22;25670;44.782;10.356;2024-01-30T13:19:19;13.50;99.90
39983;DHT22;25670;44.782;10.356;2024-01-30T13:21:45;13.70;13.50
39983;DHT22;25670;44.782;10.356;2024-01-30T13:24:12;13.80;99.90
39983;DHT22;25670;44.782;10.356;2024-01-30T13:26:38;14.40;47.10
39983;DHT22;25670;44.782;10.356;2024-01-30T13:29:05;14.90;24.80
39983;DHT22;25670;44.782;10.356;2024-01-30T13:31:31;15.10;99.90
39983;DHT22;25670;44.782;10.356;2024-01-30T13:33:58;16.00;99.90
39983;DHT22;25670;44.782;10.356;2024-01-30T13:36:24;16.40;43.00
39983;DHT22;25670;44.782;10.356;2024-01-30T13:38:50;16.80;1.00
39983;DHT22;25670;44.782;10.356;2024-01-30T13:41:16;17.30;99.90
39983;DHT22;25670;44.782;10.356;2024-01-30T13:43:44;17.30;99.90
39983;DHT22;25670;44.782;10.356;2024-01-30T13:46:10;17.30;99.90
39983;DHT22;25670;44.782;10.356;2024-01-30T13:48:37;17.20;99.90
39983;DHT22;25670;44.782;10.356;2024-01-30T13:51:03;16.50;99.90
39983;DHT22;25670;44.782;10.356;2024-01-30T13:53:30;17.00;99.90
39983;DHT22;25670;44.782;10.356;2024-01-30T13:55:56;17.10;99.90
39983;DHT22;25670;44.782;10.356;2024-01-30T13:58:23;17.60;66.60
39983;DHT22;25670;44.782;10.356;2024-01-30T14:00:49;17.80;6.60
39983;DHT22;25670;44.782;10.356;2024-01-30T14:03:15;16.90;1.00
39983;DHT22;25670;44.782;10.356;2024-01-30T14:05:42;16.70;99.90
39983;DHT22;25670;44.782;10.356;2024-01-30T14:08:08;16.10;99.90
39983;DHT22;25670;44.782;10.356;2024-01-30T14:10:34;15.90;99.90
39983;DHT22;25670;44.782;10.356;2024-01-30T14:13:01;15.10;1.00
39983;DHT22;25670;44.782;10.356;2024-01-30T14:15:27;15.00;99.90
39983;DHT22;25670;44.782;10.356;2024-01-30T14:17:54;14.70;99.90
39983;DHT22;25670;44.782;10.356;2024-01-30T14:20:21;14.60;99.90
39983;DHT22;25670;44.782;10.356;2024-01-30T14:22:47;14.70;1.00
39983;DHT22;25670;44.782;10.356;2024-01-30T14:25:13;14.70;51.10
39983;DHT22;25670;44.782;10.356;2024-01-30T14:27:40;15.00;99.90
39983;DHT22;25670;44.782;10.356;2024-01-30T14:30:09;15.40;99.90
39983;DHT22;25670;44.782;10.356;2024-01-30T14:32:36;15.10;1.00
39983;DHT22;25670;44.782;10.356;2024-01-30T14:35:04;15.60;99.90
39983;DHT22;25670;44.782;10.356;2024-01-30T14:37:31;16.00;99.90
39983;DHT22;25670;44.782;10.356;2024-01-30T14:39:58;16.20;95.70
39983;DHT22;25670;44.782;10.356;2024-01-30T14:42:24;17.00;44.10
39983;DHT22;25670;44.782;10.356;2024-01-30T14:44:50;16.90;1.00
39983;DHT22;25670;44.782;10.356;2024-01-30T14:47:17;16.00;99.90
39983;DHT22;25670;44.782;10.356;2024-01-30T14:49:43;15.50;36.50
39983;DHT22;25670;44.782;10.356;2024-01-30T14:52:10;14.30;67.20
39983;DHT22;25670;44.782;10.356;2024-01-30T14:54:37;13.30;99.90
39983;DHT22;25670;44.782;10.356;2024-01-30T14:57:03;13.20;99.90
39983;DHT22;25670;44.782;10.356;2024-01-30T14:59:30;13.30;99.90
39983;DHT22;25670;44.782;10.356;2024-01-30T15:01:56;13.40;99.90
39983;DHT22;25670;44.782;10.356;2024-01-30T15:04:23;13.30;1.00
39983;DHT22;25670;44.782;10.356;2024-01-30T15:06:49;13.60;99.90
39983;DHT22;25670;44.782;10.356;2024-01-30T15:09:16;13.70;99.90
39983;DHT22;25670;44.782;10.356;2024-01-30T15:11:44;14.60;1.00
39983;DHT22;25670;44.782;10.356;2024-01-30T15:14:11;15.40;99.90
39983;DHT22;25670;44.782;10.356;2024-01-30T15:16:37;15.20;1.00
39983;DHT22;25670;44.782;10.356;2024-01-30T15:19:07;14.60;1.00
39983;DHT22;25670;44.782;10.356;2024-01-30T15:21:36;13.80;99.90
39983;DHT22;25670;44.782;10.356;2024-01-30T15:24:03;13.20;46.90
39983;DHT22;25670;44.782;10.356;2024-01-30T15:26:29;12.50;99.90
39983;DHT22;25670;44.782;10.356;2024-01-30T15:28:56;11.80;99.90
39983;DHT22;25670;44.782;10.356;2024-01-30T15:31:22;11.60;1.00
39983;DHT22;25670;44.782;10.356;2024-01-30T15:33:48;11.60;99.90
39983;DHT22;25670;44.782;10.356;2024-01-30T15:36:15;11.70;99.90
39983;DHT22;25670;44.782;10.356;2024-01-30T15:38:41;11.60;99.90